createdAt,value
2023-05-12T00:01:14.310Z,100.00
2023-05-12T00:03:43.761Z,100.00
2023-05-12T00:06:12.502Z,100.00
2023-05-12T00:08:40.493Z,100.00
2023-05-12T00:11:08.390Z,100.00
2023-05-12T00:13:36.266Z,100.00
2023-05-12T00:16:04.481Z,100.00
2023-05-12T00:18:32.347Z,100.00
2023-05-12T00:21:01.522Z,100.00
2023-05-12T00:23:29.333Z,100.00
2023-05-12T00:25:57.072Z,100.00
2023-05-12T00:28:24.810Z,100.00
2023-05-12T00:30:52.613Z,100.00
2023-05-12T00:33:20.575Z,100.00
2023-05-12T00:35:48.300Z,100.00
2023-05-12T00:38:17.743Z,100.00
2023-05-12T00:40:45.508Z,100.00
2023-05-12T00:43:13.256Z,100.00
2023-05-12T00:45:41.373Z,100.00
2023-05-12T00:48:09.520Z,100.00
2023-05-12T00:50:37.602Z,100.00
2023-05-12T00:53:05.476Z,100.00
2023-05-12T00:55:34.721Z,100.00
2023-05-12T00:58:02.513Z,100.00
2023-05-12T01:00:30.544Z,100.00
2023-05-12T01:02:58.787Z,100.00
2023-05-12T01:05:31.785Z,100.00
2023-05-12T01:08:01.562Z,100.00
2023-05-12T01:10:29.341Z,100.00
2023-05-12T01:12:58.527Z,100.00
2023-05-12T01:15:26.450Z,100.00
2023-05-12T01:17:59.498Z,100.00
2023-05-12T01:20:28.142Z,100.00
2023-05-12T01:22:56.588Z,100.00
2023-05-12T01:25:25.527Z,100.00
2023-05-12T01:27:55.123Z,100.00
2023-05-12T01:30:24.649Z,100.00
2023-05-12T01:32:53.374Z,100.00
2023-05-12T01:35:21.274Z,100.00
2023-05-12T01:37:49.153Z,100.00
2023-05-12T01:40:18.168Z,100.00
2023-05-12T01:42:46.083Z,100.00
2023-05-12T01:45:15.207Z,100.00
2023-05-12T01:47:43.258Z,100.00
2023-05-12T01:50:11.683Z,100.00
2023-05-12T01:52:39.465Z,100.00
2023-05-12T01:55:08.212Z,100.00
2023-05-12T01:57:35.937Z,100.00
2023-05-12T02:00:03.884Z,100.00
2023-05-12T02:02:34.446Z,100.00
2023-05-12T02:05:02.337Z,100.00
2023-05-12T02:07:30.239Z,100.00
2023-05-12T02:09:58.168Z,100.00
2023-05-12T02:12:25.934Z,100.00
2023-05-12T02:14:53.646Z,100.00
2023-05-12T02:17:21.471Z,100.00
2023-05-12T02:19:51.257Z,100.00
2023-05-12T02:22:19.062Z,100.00
2023-05-12T02:24:46.906Z,100.00
2023-05-12T02:27:14.742Z,100.00
2023-05-12T02:29:42.868Z,100.00
2023-05-12T02:32:11.219Z,100.00
2023-05-12T02:34:39.325Z,100.00
2023-05-12T02:37:08.450Z,100.00
2023-05-12T02:39:36.227Z,100.00
2023-05-12T02:42:03.996Z,100.00
2023-05-12T02:44:31.761Z,100.00
2023-05-12T02:46:59.501Z,100.00
2023-05-12T02:49:27.298Z,100.00
2023-05-12T02:51:55.356Z,100.00
2023-05-12T02:54:24.712Z,100.00
2023-05-12T02:56:53.191Z,100.00
2023-05-12T02:59:20.970Z,100.00
2023-05-12T03:01:48.725Z,100.00
2023-05-12T03:04:16.748Z,100.00
2023-05-12T03:06:44.520Z,100.00
2023-05-12T03:09:12.320Z,100.00
2023-05-12T03:11:41.786Z,100.00
2023-05-12T03:14:09.586Z,100.00
2023-05-12T03:16:37.407Z,100.00
2023-05-12T03:19:05.676Z,100.00
2023-05-12T03:21:33.604Z,100.00
2023-05-12T03:24:01.336Z,100.00
2023-05-12T03:26:29.120Z,100.00
2023-05-12T03:28:58.224Z,100.00
2023-05-12T03:31:26.086Z,100.00
2023-05-12T03:33:54.006Z,100.00
2023-05-12T03:36:21.807Z,100.00
2023-05-12T03:38:49.510Z,100.00
2023-05-12T03:41:18.136Z,100.00
2023-05-12T03:43:45.913Z,100.00
2023-05-12T03:46:15.140Z,100.00
2023-05-12T03:48:43.212Z,100.00
2023-05-12T03:51:10.996Z,100.00
2023-05-12T03:53:40.223Z,100.00
2023-05-12T03:56:08.593Z,100.00
2023-05-12T03:58:36.523Z,100.00
2023-05-12T04:01:04.629Z,100.00
2023-05-12T04:03:33.858Z,100.00
2023-05-12T04:06:02.520Z,100.00
2023-05-12T04:08:30.838Z,100.00
2023-05-12T04:11:01.025Z,100.00
2023-05-12T04:13:30.073Z,100.00
2023-05-12T04:15:58.393Z,100.00
2023-05-12T04:18:26.879Z,100.00
2023-05-12T04:20:56.430Z,100.00
2023-05-12T04:23:24.510Z,100.00
2023-05-12T04:25:52.342Z,100.00
2023-05-12T04:28:20.099Z,100.00
2023-05-12T04:30:47.881Z,100.00
2023-05-12T04:33:15.625Z,100.00
2023-05-12T04:35:43.399Z,100.00
2023-05-12T04:38:12.541Z,100.00
2023-05-12T04:40:40.735Z,100.00
2023-05-12T04:43:08.453Z,100.00
2023-05-12T04:45:36.175Z,100.00
2023-05-12T04:48:04.010Z,100.00
2023-05-12T04:50:31.737Z,100.00
2023-05-12T04:52:59.584Z,100.00
2023-05-12T04:55:28.711Z,100.00
2023-05-12T04:57:56.437Z,100.00
2023-05-12T05:00:24.485Z,100.00
2023-05-12T05:02:52.492Z,100.00
2023-05-12T05:05:20.584Z,100.00
2023-05-12T05:07:48.801Z,100.00
2023-05-12T05:10:16.734Z,100.00
2023-05-12T05:12:45.877Z,100.00
2023-05-12T05:15:13.640Z,100.00
2023-05-12T05:17:43.865Z,100.00
2023-05-12T05:20:15.244Z,100.00
2023-05-12T05:22:43.379Z,100.00
2023-05-12T05:25:11.668Z,100.00
2023-05-12T05:27:39.745Z,100.00
2023-05-12T05:30:10.009Z,100.00
2023-05-12T05:32:40.491Z,100.00
2023-05-12T05:35:09.130Z,100.00
2023-05-12T05:37:37.153Z,100.00
2023-05-12T05:40:05.755Z,100.00
2023-05-12T05:42:33.476Z,100.00
2023-05-12T05:45:01.412Z,100.00
2023-05-12T05:47:31.942Z,100.00
2023-05-12T05:49:59.700Z,100.00
2023-05-12T05:52:27.468Z,100.00
2023-05-12T05:54:55.512Z,100.00
2023-05-12T05:57:23.257Z,100.00
2023-05-12T05:59:51.520Z,100.00
2023-05-12T06:02:23.229Z,100.00
2023-05-12T06:04:52.583Z,100.00
2023-05-12T06:07:22.093Z,100.00
2023-05-12T06:09:50.064Z,100.00
2023-05-12T06:12:17.782Z,100.00
2023-05-12T06:14:45.641Z,100.00
2023-05-12T06:17:13.397Z,100.00
2023-05-12T06:19:41.174Z,100.00
2023-05-12T06:22:10.279Z,100.00
2023-05-12T06:24:38.003Z,100.00
2023-05-12T06:27:05.726Z,100.00
2023-05-12T06:29:33.608Z,100.00
2023-05-12T06:32:01.619Z,100.00
2023-05-12T06:34:29.678Z,100.00
2023-05-12T06:36:57.398Z,100.00
2023-05-12T06:39:26.778Z,100.00
2023-05-12T06:41:54.520Z,100.00
2023-05-12T06:44:22.308Z,100.00
2023-05-12T06:46:50.020Z,100.00
2023-05-12T06:49:17.852Z,100.00
2023-05-12T06:51:45.951Z,100.00
2023-05-12T06:54:13.763Z,100.00
2023-05-12T06:56:42.938Z,100.00
2023-05-12T06:59:11.090Z,100.00
2023-05-12T07:01:39.039Z,100.00
2023-05-12T07:04:07.933Z,100.00
2023-05-12T07:06:35.881Z,100.00
2023-05-12T07:09:04.108Z,100.00
2023-05-12T07:11:31.884Z,100.00
2023-05-12T07:14:01.034Z,100.00
2023-05-12T07:16:28.846Z,100.00
2023-05-12T07:18:56.745Z,100.00
2023-05-12T07:21:24.639Z,100.00
2023-05-12T07:23:52.374Z,100.00
2023-05-12T07:26:21.392Z,100.00
2023-05-12T07:28:49.146Z,100.00
2023-05-12T07:31:18.271Z,100.00
2023-05-12T07:33:46.085Z,100.00
2023-05-12T07:36:13.978Z,100.00
2023-05-12T07:38:41.687Z,100.00
2023-05-12T07:41:09.636Z,100.00
2023-05-12T07:43:37.461Z,100.00
2023-05-12T07:46:05.267Z,100.00
2023-05-12T07:48:39.550Z,100.00
2023-05-12T07:51:08.109Z,100.00
2023-05-12T07:53:36.195Z,100.00
2023-05-12T07:56:04.060Z,100.00
2023-05-12T07:58:31.797Z,100.00
2023-05-12T08:01:01.076Z,100.00
2023-05-12T08:03:28.976Z,100.00
2023-05-12T08:05:58.095Z,100.00
2023-05-12T08:08:25.853Z,100.00
2023-05-12T08:10:53.580Z,100.00
2023-05-12T08:13:23.122Z,100.00
2023-05-12T08:15:51.182Z,100.00
2023-05-12T08:18:19.340Z,100.00
2023-05-12T08:20:47.198Z,100.00
2023-05-12T08:23:17.533Z,100.00
2023-05-12T08:25:45.477Z,100.00
2023-05-12T08:28:13.831Z,100.00
2023-05-12T08:30:41.717Z,100.00
2023-05-12T08:33:09.584Z,100.00
2023-05-12T08:35:37.506Z,100.00
2023-05-12T08:38:05.832Z,100.00
2023-05-12T08:40:44.945Z,100.00
2023-05-12T08:43:24.800Z,100.00
2023-05-12T08:45:57.436Z,100.00
2023-05-12T08:48:27.574Z,100.00
2023-05-12T08:50:56.012Z,99.85
2023-05-12T08:53:26.515Z,99.90
2023-05-12T08:57:10.032Z,97.13
2023-05-12T08:58:47.221Z,97.38
2023-05-12T09:01:17.452Z,97.22
2023-05-12T09:03:45.564Z,94.57
2023-05-12T09:06:14.405Z,94.31
2023-05-12T09:08:42.554Z,92.74
2023-05-12T09:11:13.626Z,93.63
2023-05-12T09:13:51.637Z,90.80
2023-05-12T09:16:23.799Z,89.21
2023-05-12T09:18:53.397Z,88.17
2023-05-12T09:21:21.865Z,89.49
2023-05-12T09:23:57.413Z,87.33
2023-05-12T09:26:27.850Z,84.46
2023-05-12T09:28:57.078Z,83.72
2023-05-12T09:31:26.094Z,83.17
2023-05-12T09:33:53.933Z,82.89
2023-05-12T09:36:22.999Z,80.00
2023-05-12T09:39:00.063Z,78.03
2023-05-12T09:41:29.396Z,77.30
2023-05-12T09:43:57.777Z,77.02
2023-05-12T09:46:26.112Z,76.50
2023-05-12T09:48:56.953Z,77.74
2023-05-12T09:51:25.458Z,75.85
2023-05-12T09:53:53.601Z,77.50
2023-05-12T09:56:22.037Z,74.62
2023-05-12T09:58:51.375Z,71.04
2023-05-12T10:01:24.009Z,71.39
2023-05-12T10:03:55.805Z,71.88
2023-05-12T10:06:28.351Z,71.28
2023-05-12T10:09:05.503Z,69.68
2023-05-12T10:11:33.830Z,69.36
2023-05-12T10:14:04.746Z,67.82
2023-05-12T10:16:34.593Z,66.45
2023-05-12T10:19:04.355Z,64.26
2023-05-12T10:21:33.157Z,63.91
2023-05-12T10:24:04.096Z,63.34
2023-05-12T10:26:34.799Z,63.27
2023-05-12T10:29:04.394Z,63.22
2023-05-12T10:31:33.680Z,64.58
2023-05-12T10:34:03.012Z,63.46
2023-05-12T10:36:31.089Z,61.76
2023-05-12T10:39:06.195Z,62.23
2023-05-12T10:41:35.484Z,62.81
2023-05-12T10:44:05.066Z,63.68
2023-05-12T10:46:33.014Z,62.40
2023-05-12T10:49:04.229Z,60.89
2023-05-12T10:51:33.652Z,62.20
2023-05-12T10:54:03.817Z,59.56
2023-05-12T10:56:43.462Z,58.73
2023-05-12T10:59:19.044Z,58.56
2023-05-12T11:02:05.125Z,60.66
2023-05-12T11:04:42.693Z,56.63
2023-05-12T11:07:13.855Z,57.86
2023-05-12T11:09:56.685Z,57.12
2023-05-12T11:12:27.636Z,57.91
2023-05-12T11:14:56.840Z,56.78
2023-05-12T11:17:24.761Z,57.30
2023-05-12T11:19:52.702Z,58.21
2023-05-12T11:22:22.533Z,56.81
2023-05-12T11:24:51.413Z,55.67
2023-05-12T11:27:20.728Z,56.38
2023-05-12T11:29:59.371Z,56.25
2023-05-12T11:32:27.383Z,56.07
2023-05-12T11:34:58.548Z,55.19
2023-05-12T11:37:26.406Z,51.96
2023-05-12T11:39:54.201Z,52.97
2023-05-12T11:42:25.079Z,53.27
2023-05-12T11:44:55.457Z,50.92
2023-05-12T11:47:24.733Z,50.06
2023-05-12T11:49:54.469Z,49.07
2023-05-12T11:52:23.972Z,51.40
2023-05-12T11:54:54.439Z,48.22
2023-05-12T11:57:28.888Z,48.48
2023-05-12T12:00:04.254Z,47.33
2023-05-12T12:02:33.903Z,47.23
2023-05-12T12:05:02.115Z,48.02
2023-05-12T12:07:31.845Z,48.56
2023-05-12T12:10:00.902Z,46.61
2023-05-12T12:12:28.729Z,45.25
2023-05-12T12:14:59.986Z,45.78
2023-05-12T12:17:30.962Z,46.04
2023-05-12T12:20:00.459Z,47.02
2023-05-12T12:22:29.741Z,44.48
2023-05-12T12:24:57.626Z,45.28
2023-05-12T12:27:25.483Z,44.97
2023-05-12T12:29:53.408Z,45.67
2023-05-12T12:32:21.267Z,45.45
2023-05-12T12:34:49.332Z,45.69
2023-05-12T12:37:20.700Z,44.15
2023-05-12T12:39:48.746Z,44.56
2023-05-12T12:42:16.582Z,44.53
2023-05-12T12:44:46.087Z,43.97
2023-05-12T12:47:14.422Z,43.77
2023-05-12T12:49:42.448Z,43.56
2023-05-12T12:52:10.452Z,42.91
2023-05-12T12:54:39.585Z,41.76
2023-05-12T12:57:07.360Z,41.93
2023-05-12T12:59:35.066Z,41.02
2023-05-12T13:02:02.944Z,40.90
2023-05-12T13:04:30.807Z,40.74
2023-05-12T13:06:58.540Z,41.73
2023-05-12T13:09:26.296Z,41.99
2023-05-12T13:11:55.819Z,38.88
2023-05-12T13:14:24.341Z,40.45
2023-05-12T13:16:52.914Z,41.92
2023-05-12T13:19:21.694Z,41.63
2023-05-12T13:21:49.661Z,41.61
2023-05-12T13:24:17.555Z,41.07
2023-05-12T13:26:45.399Z,40.74
2023-05-12T13:29:14.565Z,40.70
2023-05-12T13:31:43.149Z,42.38
2023-05-12T13:34:11.078Z,42.11
2023-05-12T13:36:39.068Z,41.60
2023-05-12T13:39:06.875Z,41.30
2023-05-12T13:41:34.852Z,40.85
2023-05-12T13:44:02.739Z,41.19
2023-05-12T13:46:31.929Z,41.63
2023-05-12T13:48:59.753Z,41.18
2023-05-12T13:51:27.721Z,39.94
2023-05-12T13:53:55.865Z,39.45
2023-05-12T13:56:24.239Z,39.05
2023-05-12T13:58:51.998Z,39.36
2023-05-12T14:01:19.869Z,39.29
2023-05-12T14:03:49.120Z,38.17
2023-05-12T14:06:17.147Z,37.86
2023-05-12T14:08:44.951Z,38.83
2023-05-12T14:11:12.715Z,38.12
2023-05-12T14:13:40.614Z,38.19
2023-05-12T14:16:09.384Z,38.68
2023-05-12T14:18:37.565Z,38.52
2023-05-12T14:21:06.883Z,42.80
2023-05-12T14:23:34.901Z,48.57
2023-05-12T14:26:03.581Z,53.36
2023-05-12T14:28:31.398Z,57.95
2023-05-12T14:30:59.326Z,59.35
2023-05-12T14:33:27.222Z,60.74
2023-05-12T14:36:05.956Z,62.17
2023-05-12T14:38:36.330Z,60.97
2023-05-12T14:41:04.241Z,59.04
2023-05-12T14:43:32.434Z,61.39
2023-05-12T14:46:01.857Z,62.68
2023-05-12T14:48:29.705Z,63.66
2023-05-12T14:50:58.201Z,64.37
2023-05-12T14:53:26.000Z,65.55
2023-05-12T14:55:55.410Z,64.29
2023-05-12T14:58:24.331Z,62.82
2023-05-12T15:00:52.828Z,62.91
2023-05-12T15:03:21.846Z,62.67
2023-05-12T15:08:21.608Z,56.72
2023-05-12T15:10:49.846Z,53.62
2023-05-12T15:13:20.609Z,52.83
2023-05-12T15:15:48.639Z,50.49
2023-05-12T15:18:16.851Z,48.14
2023-05-12T15:20:44.616Z,48.03
2023-05-12T15:23:12.399Z,48.08
2023-05-12T15:25:41.258Z,50.94
2023-05-12T15:28:09.444Z,52.27
2023-05-12T15:30:38.591Z,55.41
2023-05-12T15:33:06.702Z,56.98
2023-05-12T15:35:34.879Z,59.15
2023-05-12T15:38:02.729Z,62.11
2023-05-12T15:40:31.426Z,63.08
2023-05-12T15:42:59.270Z,61.62
2023-05-12T15:45:27.153Z,64.75
2023-05-12T15:47:56.816Z,66.09
2023-05-12T15:50:24.682Z,66.59
2023-05-12T15:52:52.511Z,66.69
2023-05-12T15:55:20.870Z,67.39
2023-05-12T15:57:49.042Z,66.28
2023-05-12T16:00:18.005Z,65.47
2023-05-12T16:02:45.905Z,66.38
2023-05-12T16:05:15.196Z,65.49
2023-05-12T16:07:43.470Z,65.22
2023-05-12T16:10:11.757Z,65.78
2023-05-12T16:12:40.163Z,64.87
2023-05-12T16:15:08.719Z,68.10
2023-05-12T16:17:36.516Z,68.41
2023-05-12T16:20:04.618Z,68.84
2023-05-12T16:22:33.974Z,69.05
2023-05-12T16:25:01.819Z,68.04
2023-05-12T16:27:29.684Z,68.69
2023-05-12T16:29:57.508Z,69.01
2023-05-12T16:32:25.434Z,70.30
2023-05-12T16:34:53.324Z,71.05
2023-05-12T16:37:22.722Z,69.97
2023-05-12T16:39:52.180Z,69.85
2023-05-12T16:42:20.224Z,70.02
2023-05-12T16:44:48.490Z,70.34
2023-05-12T16:47:16.860Z,70.44
2023-05-12T16:49:44.667Z,69.68
2023-05-12T16:52:12.696Z,66.71
2023-05-12T16:54:40.443Z,56.15
2023-05-12T16:57:09.648Z,54.65
2023-05-12T16:59:38.689Z,56.03
2023-05-12T17:02:08.409Z,59.34
2023-05-12T17:04:36.523Z,64.05
2023-05-12T17:07:04.320Z,65.17
2023-05-12T17:09:32.296Z,67.01
2023-05-12T17:12:00.122Z,67.60
2023-05-12T17:14:29.573Z,68.97
2023-05-12T17:16:57.636Z,69.50
2023-05-12T17:19:25.399Z,72.87
2023-05-12T17:21:53.751Z,72.84
2023-05-12T17:24:21.751Z,73.04
2023-05-12T17:26:49.767Z,73.38
2023-05-12T17:29:17.920Z,72.47
2023-05-12T17:31:47.262Z,72.88
2023-05-12T17:34:15.354Z,73.60
2023-05-12T17:36:43.418Z,72.65
2023-05-12T17:39:14.827Z,73.01
2023-05-12T17:41:42.748Z,73.41
2023-05-12T17:44:10.726Z,73.70
2023-05-12T17:46:39.026Z,74.09
2023-05-12T17:49:08.324Z,74.27
2023-05-12T17:51:36.370Z,74.34
2023-05-12T17:54:05.031Z,73.97
2023-05-12T17:56:34.186Z,73.38
2023-05-12T17:59:02.674Z,74.11
2023-05-12T18:01:30.686Z,73.42
2023-05-12T18:03:58.598Z,73.07
2023-05-12T18:06:27.775Z,73.32
2023-05-12T18:08:56.607Z,73.11
2023-05-12T18:11:24.448Z,73.15
2023-05-12T18:13:52.533Z,72.71
2023-05-12T18:16:28.657Z,71.62
2023-05-12T18:18:57.429Z,71.06
2023-05-12T18:21:25.932Z,72.11
2023-05-12T18:23:55.822Z,71.65
2023-05-12T18:26:24.031Z,71.96
2023-05-12T18:28:51.940Z,72.38
2023-05-12T18:31:20.507Z,72.83
2023-05-12T18:33:48.877Z,73.56
2023-05-12T18:36:16.891Z,72.96
2023-05-12T18:38:45.077Z,72.58
2023-05-12T18:41:14.252Z,72.63
2023-05-12T18:43:44.017Z,73.03
2023-05-12T18:46:12.502Z,73.35
2023-05-12T18:48:40.904Z,73.20
2023-05-12T18:51:09.570Z,72.66
2023-05-12T18:53:37.493Z,72.94
2023-05-12T18:56:05.562Z,72.53
2023-05-12T18:58:34.813Z,71.07
2023-05-12T19:01:03.856Z,71.83
2023-05-12T19:03:33.080Z,72.69
2023-05-12T19:06:01.159Z,72.93
2023-05-12T19:08:28.984Z,73.33
2023-05-12T19:10:56.823Z,73.89
2023-05-12T19:13:24.682Z,73.75
2023-05-12T19:15:53.906Z,74.16
2023-05-12T19:18:21.940Z,74.52
2023-05-12T19:20:49.884Z,74.50
2023-05-12T19:23:17.831Z,74.04
2023-05-12T19:25:45.710Z,74.36
2023-05-12T19:28:13.519Z,74.78
2023-05-12T19:30:41.834Z,74.93
2023-05-12T19:33:11.069Z,75.08
2023-05-12T19:35:39.258Z,75.42
2023-05-12T19:38:07.094Z,75.55
2023-05-12T19:40:35.241Z,75.57
2023-05-12T19:43:05.052Z,76.20
2023-05-12T19:45:32.920Z,76.43
2023-05-12T19:48:00.804Z,76.87
2023-05-12T19:50:30.763Z,77.49
2023-05-12T19:52:58.707Z,77.86
2023-05-12T19:55:26.982Z,78.13
2023-05-12T19:57:54.851Z,78.52
2023-05-12T20:00:22.799Z,78.71
2023-05-12T20:02:51.119Z,78.73
2023-05-12T20:05:19.394Z,78.93
2023-05-12T20:07:49.530Z,79.44
2023-05-12T20:10:17.691Z,79.63
2023-05-12T20:12:45.563Z,79.49
2023-05-12T20:15:13.344Z,79.84
2023-05-12T20:17:41.302Z,80.12
2023-05-12T20:20:11.834Z,80.22
2023-05-12T20:22:39.997Z,80.19
2023-05-12T20:25:12.483Z,81.08
2023-05-12T20:27:40.483Z,81.01
2023-05-12T20:30:09.789Z,81.54
2023-05-12T20:32:37.747Z,81.64
2023-05-12T20:35:06.463Z,81.94
2023-05-12T20:37:34.634Z,82.50
2023-05-12T20:40:03.180Z,83.02
2023-05-12T20:42:32.358Z,83.25
2023-05-12T20:45:00.234Z,83.57
2023-05-12T20:47:30.438Z,83.63
2023-05-12T20:49:58.720Z,83.98
2023-05-12T20:52:28.957Z,84.29
2023-05-12T20:54:58.114Z,84.11
2023-05-12T20:57:26.045Z,84.49
2023-05-12T20:59:56.848Z,84.76
2023-05-12T21:02:25.044Z,85.05
2023-05-12T21:04:53.336Z,85.41
2023-05-12T21:07:21.753Z,86.47
2023-05-12T21:09:49.866Z,86.17
2023-05-12T21:12:17.805Z,86.80
2023-05-12T21:14:46.336Z,87.24
2023-05-12T21:17:16.658Z,86.94
2023-05-12T21:19:44.553Z,87.05
2023-05-12T21:22:13.128Z,87.29
2023-05-12T21:24:42.219Z,87.60
2023-05-12T21:27:10.146Z,87.39
2023-05-12T21:29:37.994Z,87.60
2023-05-12T21:32:06.549Z,88.29
2023-05-12T21:34:36.181Z,88.37
2023-05-12T21:37:04.106Z,88.81
2023-05-12T21:39:31.909Z,88.94
2023-05-12T21:41:59.709Z,89.58
2023-05-12T21:44:27.823Z,89.53
2023-05-12T21:46:55.634Z,89.85
2023-05-12T21:49:23.532Z,90.22
2023-05-12T21:51:55.870Z,90.13
2023-05-12T21:54:23.717Z,90.52
2023-05-12T21:56:51.786Z,90.12
2023-05-12T21:59:20.683Z,90.66
2023-05-12T22:01:48.597Z,90.87
2023-05-12T22:04:16.607Z,91.02
2023-05-12T22:06:44.476Z,91.84
2023-05-12T22:09:13.773Z,92.21
2023-05-12T22:11:42.004Z,93.25
2023-05-12T22:14:09.860Z,94.03
2023-05-12T22:16:41.910Z,93.73
2023-05-12T22:19:10.622Z,94.14
2023-05-12T22:21:38.646Z,94.02
2023-05-12T22:24:07.027Z,94.49
2023-05-12T22:26:36.183Z,94.50
2023-05-12T22:29:03.956Z,94.59
2023-05-12T22:31:31.816Z,94.88
2023-05-12T22:33:59.620Z,95.51
2023-05-12T22:36:27.402Z,95.97
2023-05-12T22:38:55.172Z,95.82
2023-05-12T22:41:22.991Z,96.34
2023-05-12T22:43:52.247Z,96.26
2023-05-12T22:46:20.040Z,96.41
2023-05-12T22:48:47.916Z,96.58
2023-05-12T22:51:15.773Z,96.55
2023-05-12T22:53:43.522Z,96.86
2023-05-12T22:56:11.324Z,96.82
2023-05-12T22:58:39.092Z,97.03
2023-05-12T23:01:08.321Z,97.39
2023-05-12T23:03:36.197Z,97.52
2023-05-12T23:06:03.990Z,98.11
2023-05-12T23:08:31.778Z,98.08
2023-05-12T23:10:59.610Z,98.08
2023-05-12T23:13:27.449Z,98.36
2023-05-12T23:15:55.194Z,98.33
2023-05-12T23:18:24.422Z,98.65
2023-05-12T23:20:52.249Z,98.90
2023-05-12T23:23:19.994Z,99.18
2023-05-12T23:25:48.041Z,99.10
2023-05-12T23:28:15.880Z,99.00
2023-05-12T23:30:43.678Z,99.45
2023-05-12T23:33:11.591Z,98.95
2023-05-12T23:35:40.794Z,99.13
2023-05-12T23:38:08.568Z,99.00
2023-05-12T23:40:39.098Z,99.04
2023-05-12T23:43:07.361Z,99.07
2023-05-12T23:45:35.867Z,98.88
2023-05-12T23:48:03.687Z,98.57
2023-05-12T23:50:31.605Z,98.40
2023-05-12T23:53:00.722Z,98.43
2023-05-12T23:55:28.666Z,98.39
2023-05-12T23:57:56.748Z,98.29
